createdAt,value
2018-12-11T00:02:24.403Z,79.80
2018-12-11T00:05:04.434Z,80.30
2018-12-11T00:07:41.005Z,81.20
2018-12-11T00:13:51.319Z,81.90
2018-12-11T00:16:28.904Z,83.10
2018-12-11T00:19:09.683Z,83.30
2018-12-11T00:21:46.757Z,83.20
2018-12-11T00:24:26.644Z,83.70
2018-12-11T00:27:02.873Z,83.80
2018-12-11T00:29:43.180Z,83.70
2018-12-11T00:32:19.482Z,83.70
2018-12-11T00:35:02.830Z,84.40
2018-12-11T00:37:36.521Z,84.60
2018-12-11T00:40:22.181Z,84.90
2018-12-11T00:42:58.787Z,85.40
2018-12-11T00:45:48.615Z,85.60
2018-12-11T00:48:21.568Z,85.40
2018-12-11T00:51:02.013Z,85.70
2018-12-11T00:53:41.672Z,85.10
2018-12-11T00:56:21.893Z,85.20
2018-12-11T00:58:59.200Z,84.50
2018-12-11T01:01:39.138Z,84.00
2018-12-11T01:04:15.299Z,84.70
2018-12-11T01:06:55.111Z,84.70
2018-12-11T01:09:32.424Z,84.90
2018-12-11T01:12:14.888Z,84.70
2018-12-11T01:18:26.340Z,85.20
2018-12-11T01:21:03.022Z,85.50
2018-12-11T01:23:42.236Z,85.60
2018-12-11T01:26:19.769Z,85.60
2018-12-11T01:28:59.858Z,86.10
2018-12-11T01:31:32.656Z,86.20
2018-12-11T01:34:11.859Z,86.20
2018-12-11T01:36:48.127Z,86.20
2018-12-11T01:39:37.543Z,86.10
2018-12-11T01:42:10.284Z,86.80
2018-12-11T01:44:49.541Z,86.70
2018-12-11T01:47:25.746Z,86.90
2018-12-11T01:50:05.339Z,86.30
2018-12-11T01:52:41.372Z,86.50
2018-12-11T01:55:20.322Z,86.70
2018-12-11T01:57:56.791Z,86.30
2018-12-11T02:00:36.052Z,86.20
2018-12-11T02:03:12.198Z,86.40
2018-12-11T02:05:51.634Z,86.30
2018-12-11T02:08:28.040Z,86.20
2018-12-11T02:11:07.831Z,86.40
2018-12-11T02:13:43.935Z,86.30
2018-12-11T02:16:23.154Z,86.40
2018-12-11T02:18:58.984Z,86.40
2018-12-11T02:21:42.001Z,86.50
2018-12-11T02:24:16.492Z,86.50
2018-12-11T02:26:55.397Z,86.20
2018-12-11T02:37:20.152Z,86.70
2018-12-11T02:39:56.439Z,85.90
2018-12-11T02:42:59.067Z,85.90
2018-12-11T02:45:35.571Z,85.80
2018-12-11T02:48:15.195Z,85.80
2018-12-11T02:58:39.418Z,86.00
2018-12-11T03:01:15.635Z,86.10
2018-12-11T03:03:54.548Z,85.90
2018-12-11T03:06:30.748Z,85.90
2018-12-11T03:09:09.849Z,86.00
2018-12-11T03:11:42.815Z,86.10
2018-12-11T03:14:32.342Z,85.70
2018-12-11T03:17:09.099Z,85.80
2018-12-11T03:19:50.342Z,86.10
2018-12-11T03:22:23.222Z,85.90
2018-12-11T03:25:02.372Z,85.60
2018-12-11T03:27:38.678Z,85.60
2018-12-11T03:30:17.987Z,85.90
2018-12-11T03:32:54.213Z,85.90
2018-12-11T03:36:02.032Z,85.40
2018-12-11T03:38:47.724Z,85.60
2018-12-11T03:44:57.935Z,85.80
2018-12-11T03:47:33.929Z,85.40
2018-12-11T03:50:13.368Z,85.20
2018-12-11T03:52:49.420Z,85.20
2018-12-11T03:55:28.867Z,85.00
2018-12-11T03:58:05.153Z,84.90
2018-12-11T04:00:44.465Z,84.90
2018-12-11T04:03:20.584Z,84.60
2018-12-11T04:05:59.780Z,84.90
2018-12-11T04:08:35.925Z,85.00
2018-12-11T04:11:15.144Z,85.70
2018-12-11T04:13:51.336Z,85.70
2018-12-11T04:16:30.629Z,86.00
2018-12-11T04:19:06.903Z,86.20
2018-12-11T04:21:48.173Z,85.80
2018-12-11T04:24:20.883Z,86.10
2018-12-11T04:27:00.074Z,86.30
2018-12-11T04:29:36.481Z,86.10
2018-12-11T04:32:15.671Z,86.30
2018-12-11T04:34:51.591Z,86.60
2018-12-11T04:37:30.739Z,86.50
2018-12-11T04:40:07.495Z,86.10
2018-12-11T04:42:45.354Z,85.40
2018-12-11T04:45:21.459Z,85.80
2018-12-11T04:48:00.823Z,86.00
2018-12-11T04:50:36.897Z,86.20
2018-12-11T04:53:15.831Z,86.00
2018-12-11T04:55:51.920Z,85.80
2018-12-11T04:58:31.345Z,86.30
2018-12-11T05:01:07.347Z,85.30
2018-12-11T05:07:17.637Z,85.70
2018-12-11T05:09:53.999Z,85.30
2018-12-11T05:12:43.537Z,86.00
2018-12-11T05:15:20.262Z,85.30
2018-12-11T05:17:59.548Z,85.80
2018-12-11T05:21:16.206Z,85.20
2018-12-11T05:23:55.721Z,84.90
2018-12-11T05:26:32.073Z,85.00
2018-12-11T05:29:12.154Z,84.70
2018-12-11T05:31:48.315Z,85.00
2018-12-11T05:34:27.521Z,84.90
2018-12-11T05:37:03.828Z,84.90
2018-12-11T05:39:43.208Z,84.90
2018-12-11T05:42:16.068Z,84.50
2018-12-11T05:44:56.086Z,85.00
2018-12-11T05:47:29.055Z,84.40
2018-12-11T05:50:08.197Z,84.30
2018-12-11T05:52:44.243Z,83.90
2018-12-11T05:55:23.463Z,84.40
2018-12-11T05:57:59.510Z,83.60
2018-12-11T06:00:36.086Z,83.60
2018-12-11T06:03:12.275Z,83.70
2018-12-11T06:05:49.423Z,84.10
2018-12-11T06:08:25.521Z,84.10
2018-12-11T06:11:01.693Z,84.10
2018-12-11T06:13:37.666Z,84.90
2018-12-11T06:16:40.559Z,85.50
2018-12-11T06:19:17.396Z,84.80
2018-12-11T06:22:00.180Z,84.30
2018-12-11T06:24:37.057Z,85.10
2018-12-11T06:27:13.344Z,85.00
2018-12-11T06:29:49.474Z,85.10
2018-12-11T06:32:25.091Z,85.30
2018-12-11T06:35:01.242Z,79.50
2018-12-11T06:37:37.342Z,80.10
2018-12-11T06:40:13.665Z,81.70
2018-12-11T06:42:49.877Z,83.30
2018-12-11T06:45:25.933Z,84.00
2018-12-11T06:48:02.144Z,85.10
2018-12-11T06:50:38.193Z,85.10
2018-12-11T06:53:27.801Z,85.60
2018-12-11T06:56:03.572Z,85.70
2018-12-11T06:58:40.805Z,85.80
2018-12-11T07:01:16.922Z,86.50
2018-12-11T07:03:52.966Z,86.00
2018-12-11T07:06:28.812Z,86.30
2018-12-11T07:09:06.304Z,85.30
2018-12-11T07:11:42.249Z,85.70
2018-12-11T07:14:19.030Z,78.10
2018-12-11T07:16:55.792Z,76.40
2018-12-11T07:19:32.871Z,79.10
2018-12-11T07:22:08.838Z,81.10
2018-12-11T07:24:45.138Z,82.80
2018-12-11T07:27:18.042Z,82.80
2018-12-11T07:29:54.207Z,83.80
2018-12-11T07:32:32.989Z,83.70
2018-12-11T07:35:09.423Z,84.10
2018-12-11T07:37:45.695Z,84.60
2018-12-11T07:40:22.172Z,84.70
2018-12-11T07:42:58.289Z,85.00
2018-12-11T07:45:34.449Z,84.90
2018-12-11T07:48:10.741Z,85.40
2018-12-11T07:50:43.702Z,85.20
2018-12-11T07:53:19.720Z,84.70
2018-12-11T07:56:00.230Z,85.50
2018-12-11T07:58:34.332Z,86.10
2018-12-11T08:01:13.499Z,85.30
2018-12-11T08:03:50.599Z,84.40
2018-12-11T08:06:26.886Z,84.90
2018-12-11T08:09:03.528Z,85.20
2018-12-11T08:11:36.305Z,85.70
2018-12-11T08:14:09.194Z,85.50
2018-12-11T08:16:46.645Z,85.70
2018-12-11T08:19:23.865Z,85.60
2018-12-11T08:22:03.693Z,85.40
2018-12-11T08:24:39.956Z,86.00
2018-12-11T08:27:19.213Z,86.30
2018-12-11T08:29:52.237Z,86.20
2018-12-11T08:37:39.728Z,86.30
2018-12-11T08:40:15.999Z,86.20
2018-12-11T08:50:41.071Z,86.40
2018-12-11T08:53:17.792Z,85.90
2018-12-11T08:56:26.524Z,86.20
2018-12-11T08:59:06.428Z,86.60
2018-12-11T09:01:49.112Z,85.40
2018-12-11T09:04:25.579Z,86.60
2018-12-11T09:07:04.573Z,86.60
2018-12-11T09:09:40.983Z,86.60
2018-12-11T09:12:20.990Z,86.00
2018-12-11T09:14:53.865Z,86.10
2018-12-11T09:17:32.999Z,86.30
2018-12-11T09:20:09.367Z,86.30
2018-12-11T09:22:49.209Z,86.40
2018-12-11T09:25:25.439Z,86.50
2018-12-11T09:28:10.770Z,86.40
2018-12-11T09:30:43.458Z,86.10
2018-12-11T09:33:22.718Z,85.60
2018-12-11T09:35:59.280Z,85.90
2018-12-11T09:38:39.228Z,86.10
2018-12-11T09:41:15.662Z,86.00
2018-12-11T09:43:54.913Z,86.30
2018-12-11T09:46:35.135Z,86.90
2018-12-11T09:49:14.592Z,87.00
2018-12-11T09:51:47.703Z,87.40
2018-12-11T09:54:27.863Z,87.00
2018-12-11T09:57:06.090Z,87.20
2018-12-11T09:59:47.998Z,87.40
2018-12-11T10:02:24.212Z,88.20
2018-12-11T10:05:05.007Z,87.20
2018-12-11T10:07:41.601Z,87.40
2018-12-11T10:10:25.497Z,87.60
2018-12-11T10:13:01.972Z,87.00
2018-12-11T10:15:48.553Z,87.50
2018-12-11T10:18:29.130Z,87.90
2018-12-11T10:21:12.091Z,88.20
2018-12-11T10:23:46.468Z,87.90
2018-12-11T10:26:25.817Z,88.80
2018-12-11T10:29:02.107Z,87.80
2018-12-11T10:31:42.163Z,87.80
2018-12-11T10:34:14.890Z,87.70
2018-12-11T10:37:01.433Z,88.20
2018-12-11T10:39:37.698Z,88.00
2018-12-11T10:42:17.956Z,87.50
2018-12-11T10:44:54.384Z,88.20
2018-12-11T10:47:33.563Z,87.60
2018-12-11T10:50:07.721Z,87.00
2018-12-11T10:52:46.749Z,86.70
2018-12-11T10:55:23.908Z,87.30
2018-12-11T10:58:03.075Z,88.10
2018-12-11T11:00:47.211Z,87.00
2018-12-11T11:03:28.286Z,87.10
2018-12-11T11:06:04.827Z,86.80
2018-12-11T11:08:44.745Z,86.40
2018-12-11T11:11:21.267Z,86.50
2018-12-11T11:14:00.344Z,86.60
2018-12-11T11:16:37.034Z,86.40
2018-12-11T11:19:17.466Z,87.30
2018-12-11T11:22:06.105Z,86.30
2018-12-11T11:24:52.071Z,86.60
2018-12-11T11:27:24.976Z,86.60
2018-12-11T11:30:05.883Z,85.90
2018-12-11T11:32:42.154Z,85.20
2018-12-11T11:35:21.233Z,85.30
2018-12-11T11:37:58.550Z,86.20
2018-12-11T11:40:37.775Z,85.80
2018-12-11T11:43:10.669Z,86.10
2018-12-11T11:45:50.075Z,86.10
2018-12-11T11:48:30.589Z,85.60
2018-12-11T11:51:10.522Z,85.00
2018-12-11T11:53:43.431Z,84.90
2018-12-11T11:56:26.946Z,85.10
2018-12-11T11:59:03.626Z,85.80
2018-12-11T12:01:43.622Z,85.20
2018-12-11T12:04:19.993Z,85.80
2018-12-11T12:10:22.643Z,84.80
2018-12-11T12:12:59.312Z,84.30
2018-12-11T12:15:39.432Z,84.70
2018-12-11T12:18:16.406Z,83.10
2018-12-11T12:20:55.534Z,81.60
2018-12-11T12:23:32.039Z,82.10
2018-12-11T12:26:11.213Z,81.90
2018-12-11T12:28:47.559Z,82.90
2018-12-11T12:31:38.380Z,83.90
2018-12-11T12:34:54.408Z,83.60
2018-12-11T12:37:34.269Z,83.70
2018-12-11T12:40:13.270Z,84.00
2018-12-11T12:42:53.328Z,83.60
2018-12-11T12:45:30.516Z,84.30
2018-12-11T12:48:10.682Z,84.00
2018-12-11T12:50:44.519Z,83.80
2018-12-11T12:53:24.832Z,83.80
2018-12-11T12:56:01.936Z,83.90
2018-12-11T12:59:10.595Z,83.40
2018-12-11T13:01:47.519Z,84.20
2018-12-11T13:11:29.731Z,84.10
2018-12-11T13:14:07.076Z,84.20
2018-12-11T13:16:43.465Z,84.20
2018-12-11T13:22:54.046Z,84.60
2018-12-11T13:25:30.481Z,84.00
2018-12-11T13:28:10.501Z,84.00
2018-12-11T13:30:47.514Z,83.80
2018-12-11T13:44:00.290Z,84.90
2018-12-11T13:50:07.479Z,85.30
2018-12-11T13:52:41.720Z,85.00
2018-12-11T13:55:21.456Z,85.10
2018-12-11T13:57:58.441Z,85.80
2018-12-11T14:00:38.402Z,85.00
2018-12-11T14:03:11.397Z,84.70
2018-12-11T14:06:27.994Z,84.30
2018-12-11T14:09:12.118Z,85.20
2018-12-11T14:11:51.624Z,85.30
2018-12-11T14:14:28.187Z,85.20
2018-12-11T14:17:06.946Z,85.00
2018-12-11T14:19:43.547Z,84.60
2018-12-11T14:22:23.070Z,84.00
2018-12-11T14:25:00.064Z,85.10
2018-12-11T14:27:39.801Z,84.70
2018-12-11T14:30:16.782Z,84.10
2018-12-11T14:32:55.994Z,84.10
2018-12-11T14:35:37.584Z,84.40
2018-12-11T14:38:17.271Z,84.20
2018-12-11T14:40:54.576Z,84.30
2018-12-11T14:43:33.956Z,84.90
2018-12-11T14:46:10.693Z,85.30
2018-12-11T14:48:49.810Z,85.30
2018-12-11T14:51:25.869Z,85.30
2018-12-11T14:54:05.079Z,85.80
2018-12-11T14:56:38.016Z,86.00
2018-12-11T14:59:17.251Z,86.20
2018-12-11T15:01:53.875Z,86.40
2018-12-11T15:08:10.345Z,86.40
2018-12-11T15:10:47.623Z,86.50
2018-12-11T15:13:29.663Z,87.30
2018-12-11T15:16:07.423Z,87.80
2018-12-11T15:18:46.651Z,87.90
2018-12-11T15:21:23.177Z,88.20
2018-12-11T15:24:04.861Z,88.20
2018-12-11T15:26:41.637Z,87.70
2018-12-11T15:29:21.557Z,88.00
2018-12-11T15:31:58.105Z,88.30
2018-12-11T15:34:38.269Z,88.30
2018-12-11T15:37:15.587Z,88.10
2018-12-11T15:39:55.455Z,87.90
2018-12-11T15:42:31.919Z,87.70
2018-12-11T15:45:08.228Z,87.90
2018-12-11T15:47:45.341Z,87.90
2018-12-11T15:50:25.309Z,87.40
2018-12-11T15:53:01.570Z,87.80
2018-12-11T15:55:41.754Z,86.90
2018-12-11T15:58:24.975Z,86.40
2018-12-11T16:01:01.501Z,87.10
2018-12-11T16:03:38.558Z,87.90
2018-12-11T16:06:22.402Z,88.00
2018-12-11T16:09:04.209Z,88.30
2018-12-11T16:11:53.684Z,88.70
2018-12-11T16:14:26.993Z,88.80
2018-12-11T16:17:07.966Z,89.00
2018-12-11T16:19:40.696Z,89.10
2018-12-11T16:22:16.580Z,89.60
2018-12-11T16:24:53.056Z,89.10
2018-12-11T16:27:29.868Z,89.40
2018-12-11T16:30:06.750Z,88.70
2018-12-11T16:32:39.433Z,88.70
2018-12-11T16:35:15.679Z,88.80
2018-12-11T16:37:51.429Z,89.10
2018-12-11T16:40:28.742Z,88.70
2018-12-11T16:43:04.844Z,88.60
2018-12-11T16:45:41.253Z,89.10
2018-12-11T16:48:18.173Z,89.10
2018-12-11T16:51:20.910Z,88.70
2018-12-11T16:53:58.370Z,88.40
2018-12-11T16:56:34.913Z,88.20
2018-12-11T16:59:12.878Z,88.60
2018-12-11T17:01:49.270Z,88.20
2018-12-11T17:04:25.435Z,88.50
2018-12-11T17:06:58.414Z,88.50
2018-12-11T17:09:41.454Z,88.30
2018-12-11T17:12:18.292Z,88.40
2018-12-11T17:14:50.986Z,88.40
2018-12-11T17:17:27.642Z,88.80
2018-12-11T17:20:00.317Z,88.40
2018-12-11T17:22:36.604Z,88.40
2018-12-11T17:25:29.781Z,88.30
2018-12-11T17:28:06.390Z,88.20
2018-12-11T17:30:43.080Z,88.10
2018-12-11T17:33:19.113Z,88.60
2018-12-11T17:35:52.131Z,88.70
2018-12-11T17:38:25.202Z,88.70
2018-12-11T17:41:01.283Z,88.60
2018-12-11T17:43:37.428Z,89.00
2018-12-11T17:46:14.146Z,88.80
2018-12-11T17:48:50.612Z,88.50
2018-12-11T17:51:26.425Z,88.80
2018-12-11T17:54:02.905Z,89.10
2018-12-11T17:56:39.445Z,88.80
2018-12-11T17:59:17.954Z,88.60
2018-12-11T18:01:58.338Z,88.70
2018-12-11T18:04:34.443Z,88.80
2018-12-11T18:07:07.256Z,88.40
2018-12-11T18:13:09.525Z,88.10
2018-12-11T18:15:45.853Z,88.70
2018-12-11T18:18:22.291Z,88.70
2018-12-11T18:20:58.328Z,88.50
2018-12-11T18:23:34.635Z,88.60
2018-12-11T18:26:10.943Z,87.90
2018-12-11T18:28:48.899Z,87.60
2018-12-11T18:31:25.393Z,87.90
2018-12-11T18:34:01.625Z,88.20
2018-12-11T18:36:37.969Z,87.70
2018-12-11T18:39:32.635Z,88.00
2018-12-11T18:42:08.972Z,87.60
2018-12-11T18:44:45.078Z,87.40
2018-12-11T18:47:21.316Z,87.80
2018-12-11T18:49:57.682Z,88.20
2018-12-11T18:52:33.925Z,87.90
2018-12-11T18:55:11.305Z,87.90
2018-12-11T18:57:47.660Z,87.70
2018-12-11T19:00:50.901Z,88.20
2018-12-11T19:03:27.924Z,87.50
2018-12-11T19:06:04.637Z,87.90
2018-12-11T19:08:41.112Z,87.30
2018-12-11T19:11:43.603Z,87.50
2018-12-11T19:14:20.401Z,87.60
2018-12-11T19:16:59.791Z,87.50
2018-12-11T19:19:37.501Z,87.50
2018-12-11T19:22:14.076Z,87.70
2018-12-11T19:24:52.959Z,87.50
2018-12-11T19:27:46.116Z,87.40
2018-12-11T19:30:41.027Z,87.10
2018-12-11T19:33:20.689Z,87.60
2018-12-11T19:36:02.270Z,87.50
2018-12-11T19:38:34.947Z,87.70
2018-12-11T19:41:42.120Z,86.90
2018-12-11T19:44:18.417Z,87.10
2018-12-11T19:47:00.009Z,87.70
2018-12-11T19:49:32.893Z,87.70
2018-12-11T19:52:12.223Z,87.90
2018-12-11T19:54:49.369Z,88.20
2018-12-11T19:57:29.837Z,87.90
2018-12-11T20:00:08.020Z,88.40
2018-12-11T20:02:49.784Z,88.60
2018-12-11T20:05:29.818Z,88.20
2018-12-11T20:08:09.068Z,88.40
2018-12-11T20:10:47.332Z,88.40
2018-12-11T20:13:26.523Z,88.30
2018-12-11T20:16:02.832Z,88.60
2018-12-11T20:19:10.728Z,88.60
2018-12-11T20:21:47.587Z,88.70
2018-12-11T20:24:27.560Z,88.70
2018-12-11T20:27:06.797Z,88.90
2018-12-11T20:29:49.448Z,88.90
2018-12-11T20:32:26.217Z,89.10
2018-12-11T20:35:07.425Z,89.00
2018-12-11T20:37:44.108Z,88.50
2018-12-11T20:40:24.142Z,88.10
2018-12-11T20:43:01.994Z,88.10
2018-12-11T20:45:41.732Z,88.00
2018-12-11T20:48:14.806Z,88.10
2018-12-11T20:50:53.985Z,88.10
2018-12-11T20:53:31.119Z,88.30
2018-12-11T20:56:10.448Z,88.50
2018-12-11T20:59:03.904Z,88.20
2018-12-11T21:01:43.698Z,87.80
2018-12-11T21:04:19.784Z,87.60
2018-12-11T21:06:58.870Z,87.70
2018-12-11T21:09:35.464Z,87.60
2018-12-11T21:12:15.402Z,87.90
2018-12-11T21:14:51.627Z,87.60
2018-12-11T21:17:30.735Z,87.60
2018-12-11T21:20:07.853Z,87.80
2018-12-11T21:22:46.974Z,87.70
2018-12-11T21:25:24.134Z,88.00
2018-12-11T21:28:03.525Z,87.60
2018-12-11T21:30:36.371Z,88.20
2018-12-11T21:33:15.403Z,88.40
2018-12-11T21:35:51.551Z,88.00
2018-12-11T21:38:30.716Z,87.80
2018-12-11T21:41:06.925Z,87.80
2018-12-11T21:43:48.369Z,88.00
2018-12-11T21:46:24.315Z,88.40
2018-12-11T21:49:03.648Z,88.40
2018-12-11T21:51:36.518Z,88.10
2018-12-11T21:54:17.861Z,88.50
2018-12-11T21:56:50.618Z,88.60
2018-12-11T21:59:29.573Z,88.30
2018-12-11T22:02:07.141Z,89.00
2018-12-11T22:04:47.294Z,87.80
2018-12-11T22:07:19.900Z,88.00
2018-12-11T22:09:59.165Z,88.20
2018-12-11T22:12:35.364Z,88.20
2018-12-11T22:15:14.985Z,87.90
2018-12-11T22:17:47.833Z,88.20
2018-12-11T22:20:27.383Z,87.80
2018-12-11T22:23:03.413Z,87.70
2018-12-11T22:25:42.610Z,87.60
2018-12-11T22:28:18.949Z,87.80
2018-12-11T22:30:58.223Z,87.80
2018-12-11T22:33:34.526Z,87.80
2018-12-11T22:36:19.800Z,88.00
2018-12-11T22:38:55.909Z,87.70
2018-12-11T22:41:35.195Z,87.60
2018-12-11T22:44:11.346Z,87.90
2018-12-11T22:46:50.633Z,87.90
2018-12-11T22:49:26.652Z,88.10
2018-12-11T22:52:05.809Z,88.40
2018-12-11T22:54:42.352Z,88.40
2018-12-11T22:57:21.959Z,88.40
2018-12-11T23:03:32.162Z,88.30
2018-12-11T23:06:10.781Z,88.40
2018-12-11T23:22:54.097Z,88.60
2018-12-11T23:25:30.416Z,88.70
2018-12-11T23:28:09.679Z,88.70
2018-12-11T23:30:45.751Z,88.30
2018-12-11T23:33:24.982Z,88.30
2018-12-11T23:36:01.110Z,88.60
2018-12-11T23:38:37.337Z,88.40
2018-12-11T23:41:16.528Z,88.60
2018-12-11T23:43:52.858Z,88.60
2018-12-11T23:46:31.833Z,88.30
2018-12-11T23:49:08.254Z,88.20
2018-12-11T23:51:47.431Z,88.50
2018-12-11T23:54:23.559Z,88.60
2018-12-11T23:57:02.579Z,88.70
2018-12-11T23:59:38.721Z,89.00
